Anastacio, Brazil
Current Conditions -  °F | °C
As of 5:00 AM on Tuesday 27 Jan 2015 (Local Time) from SBCG Reporting Station
Rain Showers Rain Showers  
Wind Chill: 70°   Ceiling: Unl
Heat Index: 70°   Visibility: 6mi
Dew Point: 66°   Wind: 9mph
Humidity: 88%   Direction: 70°ENE
Pressure: 29.91"   Gusts: NA
Location:  20.51°S, 55.8°W
Report Text: SBCG 270800Z 07008KT 9999 VCSH SCT033 21/19 Q1013
Loading
Personal Weather Stations






























Interactive Weather Map New forecast layout! Learn more

10-Day Weather Forecast

Advertisements
Track Severe Weather on mobile